Terminal Aerodrome Forecast
Issued by NWS

Home | Current Version | Previous Version | Graphics & Text | Print | Product List | Glossary On
Versions: 1 2 3 4 5 6 7 8 9 10 11 12 13 14 15 16 17 18 19 20 21 22 23 24 25 26 27 28 29 30 31 32 33 34 35 36 37 38 39 40 41 42 43 44 45
000
FTUS43 KGRB 151140
TAFRHI
TAF
KRHI 151140Z 1512/1612 29006KT P6SM SCT019 BKN035
      TEMPO 1512/1515 3SM -SHSN BKN019
     FM151500 28007KT P6SM -SHSN BKN030
     FM152000 28006KT P6SM BKN035
     FM161000 09005KT 5SM -SN BKN020=

USA.gov is the U.S. government's official web portal to all federal, state and local government web resources and services.